createdAt,value
2023-05-25T00:01:00.434Z,3.65
2023-05-25T00:03:32.626Z,3.58
2023-05-25T00:06:01.943Z,3.88
2023-05-25T00:08:30.162Z,3.72
2023-05-25T00:10:58.218Z,3.85
2023-05-25T00:13:26.230Z,3.70
2023-05-25T00:15:54.141Z,3.42
2023-05-25T00:18:22.008Z,3.70
2023-05-25T00:20:54.067Z,3.83
2023-05-25T00:23:22.203Z,3.90
2023-05-25T00:25:50.320Z,3.88
2023-05-25T00:28:18.240Z,3.60
2023-05-25T00:30:46.280Z,4.00
2023-05-25T00:33:15.356Z,4.22
2023-05-25T00:35:44.849Z,3.90
2023-05-25T00:38:15.521Z,4.05
2023-05-25T00:40:43.737Z,3.75
2023-05-25T00:43:12.956Z,4.18
2023-05-25T00:45:41.268Z,4.25
2023-05-25T00:48:10.699Z,4.28
2023-05-25T00:50:40.575Z,4.38
2023-05-25T00:53:09.693Z,4.15
2023-05-25T00:55:42.960Z,4.25
2023-05-25T00:58:12.794Z,4.22
2023-05-25T01:00:43.561Z,3.83
2023-05-25T01:03:17.764Z,4.20
2023-05-25T01:05:50.032Z,4.32
2023-05-25T01:08:21.187Z,4.22
2023-05-25T01:10:53.590Z,4.50
2023-05-25T01:13:22.486Z,4.32
2023-05-25T01:15:52.243Z,4.20
2023-05-25T01:18:20.238Z,4.68
2023-05-25T01:21:03.440Z,4.30
2023-05-25T01:23:36.373Z,4.00
2023-05-25T01:26:06.714Z,4.45
2023-05-25T01:28:40.264Z,4.63
2023-05-25T01:31:09.551Z,4.43
2023-05-25T01:33:38.174Z,4.15
2023-05-25T01:36:07.737Z,4.32
2023-05-25T01:38:36.515Z,4.15
2023-05-25T01:41:04.374Z,4.60
2023-05-25T01:43:32.298Z,4.72
2023-05-25T01:46:10.695Z,4.45
2023-05-25T01:48:47.127Z,4.70
2023-05-25T01:51:25.925Z,4.55
2023-05-25T01:53:58.092Z,4.32
2023-05-25T01:56:30.501Z,4.88
2023-05-25T01:59:02.446Z,5.10
2023-05-25T02:01:32.078Z,4.60
2023-05-25T02:04:00.641Z,5.03
2023-05-25T02:06:30.034Z,5.20
2023-05-25T02:08:58.009Z,4.90
2023-05-25T02:11:25.874Z,4.57
2023-05-25T02:13:54.214Z,4.75
2023-05-25T02:16:22.123Z,4.55
2023-05-25T02:18:50.929Z,4.93
2023-05-25T02:21:18.869Z,4.80
2023-05-25T02:23:49.241Z,4.70
2023-05-25T02:26:17.206Z,4.85
2023-05-25T02:28:45.118Z,4.55
2023-05-25T02:31:13.060Z,4.20
2023-05-25T02:33:40.936Z,5.00
2023-05-25T02:36:09.539Z,5.03
2023-05-25T02:38:37.532Z,4.70
2023-05-25T02:41:06.961Z,5.30
2023-05-25T02:43:35.526Z,4.65
2023-05-25T02:46:03.415Z,5.13
2023-05-25T02:48:31.362Z,4.78
2023-05-25T02:50:59.229Z,4.95
2023-05-25T02:53:27.248Z,4.50
2023-05-25T02:55:55.157Z,4.78
2023-05-25T02:58:24.426Z,4.63
2023-05-25T03:00:54.680Z,4.70
2023-05-25T03:03:22.750Z,4.75
2023-05-25T03:05:51.620Z,4.80
2023-05-25T03:08:19.573Z,5.10
2023-05-25T03:10:47.514Z,5.38
2023-05-25T03:13:15.517Z,4.95
2023-05-25T03:15:45.023Z,5.30
2023-05-25T03:18:13.110Z,4.65
2023-05-25T03:20:41.486Z,4.95
2023-05-25T03:23:09.522Z,4.78
2023-05-25T03:25:37.676Z,5.10
2023-05-25T03:28:05.962Z,4.93
2023-05-25T03:30:33.894Z,5.00
2023-05-25T03:33:03.199Z,4.93
2023-05-25T03:35:31.733Z,5.05
2023-05-25T03:37:59.661Z,5.10
2023-05-25T03:40:27.628Z,5.55
2023-05-25T03:42:55.508Z,5.38
2023-05-25T03:45:23.460Z,5.25
2023-05-25T03:47:51.361Z,5.13
2023-05-25T03:50:20.820Z,6.50
2023-05-25T03:52:48.700Z,5.47
2023-05-25T03:55:17.012Z,5.25
2023-05-25T03:57:44.903Z,6.07
2023-05-25T04:00:14.517Z,8.35
2023-05-25T04:02:42.579Z,7.35
2023-05-25T04:05:11.004Z,6.50
2023-05-25T04:07:40.669Z,6.90
2023-05-25T04:10:09.235Z,7.35
2023-05-25T04:12:38.482Z,6.35
2023-05-25T04:15:09.068Z,6.93
2023-05-25T04:17:39.191Z,6.88
2023-05-25T04:20:09.770Z,6.22
2023-05-25T04:22:38.842Z,9.27
2023-05-25T04:25:09.103Z,8.70
2023-05-25T04:27:37.293Z,9.02
2023-05-25T04:30:05.936Z,11.48
2023-05-25T04:32:37.424Z,8.18
2023-05-25T04:35:06.627Z,11.05
2023-05-25T04:37:36.955Z,9.45
2023-05-25T04:40:08.893Z,11.68
2023-05-25T04:42:39.414Z,11.18
2023-05-25T04:45:10.174Z,13.05
2023-05-25T04:47:40.983Z,13.27
2023-05-25T04:50:10.228Z,12.50
2023-05-25T04:52:38.158Z,12.13
2023-05-25T04:55:06.687Z,12.93
2023-05-25T04:57:34.645Z,12.43
2023-05-25T05:00:05.792Z,14.68
2023-05-25T05:02:33.740Z,12.63
2023-05-25T05:05:01.682Z,13.00
2023-05-25T05:07:29.994Z,12.88
2023-05-25T05:09:57.814Z,12.93
2023-05-25T05:12:25.668Z,13.57
2023-05-25T05:14:54.160Z,10.88
2023-05-25T05:17:24.000Z,11.77
2023-05-25T05:19:51.956Z,13.23
2023-05-25T05:22:20.016Z,12.43
2023-05-25T05:24:47.920Z,13.70
2023-05-25T05:27:17.058Z,14.70
2023-05-25T05:29:44.879Z,13.52
2023-05-25T05:32:12.752Z,14.48
2023-05-25T05:34:41.942Z,14.10
2023-05-25T05:37:10.139Z,13.25
2023-05-25T05:39:38.212Z,13.82
2023-05-25T05:42:06.775Z,13.00
2023-05-25T05:44:34.634Z,14.23
2023-05-25T05:47:03.180Z,14.38
2023-05-25T05:49:31.715Z,13.70
2023-05-25T05:52:01.043Z,15.20
2023-05-25T05:54:28.972Z,14.45
2023-05-25T05:56:56.818Z,13.90
2023-05-25T05:59:24.892Z,12.75
2023-05-25T06:01:52.867Z,13.15
2023-05-25T06:04:21.201Z,12.82
2023-05-25T06:06:49.124Z,10.48
2023-05-25T06:09:18.504Z,13.13
2023-05-25T06:11:46.399Z,12.00
2023-05-25T06:14:14.297Z,12.55
2023-05-25T06:16:43.629Z,12.82
2023-05-25T06:19:11.878Z,13.00
2023-05-25T06:21:39.691Z,13.70
2023-05-25T06:24:08.474Z,11.13
2023-05-25T06:26:37.720Z,11.18
2023-05-25T06:29:05.618Z,10.43
2023-05-25T06:31:33.473Z,10.68
2023-05-25T06:34:01.373Z,11.38
2023-05-25T06:36:29.202Z,12.35
2023-05-25T06:38:57.025Z,12.77
2023-05-25T06:41:24.866Z,11.52
2023-05-25T06:43:54.043Z,12.05
2023-05-25T06:46:21.917Z,11.90
2023-05-25T06:48:49.830Z,14.95
2023-05-25T06:51:17.883Z,15.82
2023-05-25T06:53:45.777Z,14.75
2023-05-25T06:56:13.727Z,14.50
2023-05-25T06:58:41.873Z,14.02
2023-05-25T07:01:11.128Z,18.45
2023-05-25T07:03:39.422Z,18.33
2023-05-25T07:06:07.966Z,16.88
2023-05-25T07:08:36.230Z,19.08
2023-05-25T07:11:04.085Z,16.38
2023-05-25T07:13:31.909Z,17.67
2023-05-25T07:15:59.854Z,14.27
2023-05-25T07:18:29.129Z,18.23
2023-05-25T07:20:57.026Z,18.15
2023-05-25T07:23:24.819Z,18.35
2023-05-25T07:25:53.098Z,21.05
2023-05-25T07:28:20.974Z,19.30
2023-05-25T07:30:48.948Z,18.83
2023-05-25T07:33:16.875Z,19.33
2023-05-25T07:35:46.282Z,18.85
2023-05-25T07:38:14.423Z,18.88
2023-05-25T07:40:42.334Z,18.40
2023-05-25T07:43:10.345Z,18.63
2023-05-25T07:45:38.159Z,20.67
2023-05-25T07:48:07.804Z,18.10
2023-05-25T07:50:35.857Z,16.88
2023-05-25T07:53:05.031Z,18.90
2023-05-25T07:55:32.917Z,16.83
2023-05-25T07:58:02.894Z,17.42
2023-05-25T08:00:31.018Z,16.35
2023-05-25T08:02:59.146Z,16.60
2023-05-25T08:05:27.155Z,18.90
2023-05-25T08:07:55.267Z,16.65
2023-05-25T08:10:31.202Z,15.63
2023-05-25T08:12:59.261Z,18.15
2023-05-25T08:15:27.599Z,18.20
2023-05-25T08:17:56.514Z,18.23
2023-05-25T08:20:25.856Z,15.55
2023-05-25T08:22:54.434Z,15.43
2023-05-25T08:25:22.360Z,17.27
2023-05-25T08:27:51.725Z,16.83
2023-05-25T08:30:19.586Z,18.17
2023-05-25T08:32:47.506Z,19.75
2023-05-25T08:35:15.601Z,17.90
2023-05-25T08:37:44.313Z,14.43
2023-05-25T08:40:16.191Z,15.43
2023-05-25T08:42:44.713Z,18.60
2023-05-25T08:45:26.288Z,18.05
2023-05-25T08:47:59.262Z,14.88
2023-05-25T08:50:28.520Z,13.18
2023-05-25T08:52:58.532Z,15.95
2023-05-25T08:55:35.495Z,13.82
2023-05-25T08:58:11.105Z,15.35
2023-05-25T09:00:45.913Z,15.57
2023-05-25T09:03:17.882Z,14.80
2023-05-25T09:05:46.903Z,14.80
2023-05-25T09:08:15.471Z,14.43
2023-05-25T09:10:44.162Z,14.70
2023-05-25T09:15:45.220Z,15.13
2023-05-25T09:18:13.429Z,14.20
2023-05-25T09:20:42.931Z,12.90
2023-05-25T09:23:13.072Z,15.15
2023-05-25T09:25:42.388Z,11.07
2023-05-25T09:28:25.644Z,14.23
2023-05-25T09:30:56.202Z,12.23
2023-05-25T09:33:24.278Z,13.45
2023-05-25T09:35:52.709Z,11.63
2023-05-25T09:38:21.549Z,12.77
2023-05-25T09:40:50.002Z,11.50
2023-05-25T09:43:28.438Z,12.63
2023-05-25T09:46:02.442Z,13.07
2023-05-25T09:48:30.567Z,11.15
2023-05-25T09:50:58.823Z,10.38
2023-05-25T09:53:28.161Z,10.98
2023-05-25T09:55:57.230Z,10.73
2023-05-25T09:58:25.673Z,12.20
2023-05-25T10:00:55.158Z,10.38
2023-05-25T10:03:24.661Z,10.85
2023-05-25T10:05:54.755Z,11.10
2023-05-25T10:08:25.700Z,10.48
2023-05-25T10:10:54.992Z,10.15
2023-05-25T10:13:23.815Z,10.43
2023-05-25T10:15:54.746Z,11.32
2023-05-25T10:18:27.266Z,11.65
2023-05-25T10:21:02.016Z,10.13
2023-05-25T10:23:40.224Z,11.30
2023-05-25T10:26:09.402Z,10.07
2023-05-25T10:28:38.454Z,10.38
2023-05-25T10:31:07.906Z,9.88
2023-05-25T10:33:38.053Z,10.95
2023-05-25T10:36:10.727Z,10.23
2023-05-25T10:38:41.119Z,9.65
2023-05-25T10:41:11.512Z,9.73
2023-05-25T10:43:40.168Z,9.20
2023-05-25T10:46:08.823Z,9.48
2023-05-25T10:48:39.346Z,8.90
2023-05-25T10:51:10.196Z,9.05
2023-05-25T10:53:39.957Z,9.52
2023-05-25T10:56:12.144Z,9.73
2023-05-25T10:58:43.473Z,9.23
2023-05-25T11:01:13.894Z,8.77
2023-05-25T11:04:15.613Z,8.20
2023-05-25T11:07:08.241Z,8.57
2023-05-25T11:09:43.431Z,7.25
2023-05-25T11:12:21.390Z,7.93
2023-05-25T11:15:16.284Z,7.70
2023-05-25T11:17:59.953Z,8.02
2023-05-25T11:20:30.818Z,7.25
2023-05-25T11:22:59.943Z,7.45
2023-05-25T11:25:39.480Z,7.90
2023-05-25T11:28:08.856Z,7.72
2023-05-25T11:30:38.027Z,6.65
2023-05-25T11:33:07.706Z,7.30
2023-05-25T11:35:38.086Z,7.75
2023-05-25T11:38:07.927Z,7.05
2023-05-25T11:40:38.574Z,6.50
2023-05-25T11:43:09.450Z,6.70
2023-05-25T11:45:38.434Z,6.88
2023-05-25T11:48:06.962Z,6.80
2023-05-25T11:50:34.959Z,6.75
2023-05-25T11:53:07.833Z,6.35
2023-05-25T11:55:36.265Z,6.10
2023-05-25T11:58:04.273Z,5.95
2023-05-25T12:00:32.568Z,6.20
2023-05-25T12:03:01.137Z,6.60
2023-05-25T12:05:38.724Z,6.15
2023-05-25T12:08:08.185Z,5.43
2023-05-25T12:10:50.629Z,5.80
2023-05-25T12:13:18.796Z,6.28
2023-05-25T12:15:47.299Z,5.97
2023-05-25T12:18:15.545Z,5.88
2023-05-25T12:20:43.842Z,5.95
2023-05-25T12:23:13.661Z,5.70
2023-05-25T12:25:50.232Z,5.30
2023-05-25T12:28:19.542Z,5.72
2023-05-25T12:30:47.558Z,5.70
2023-05-25T12:33:16.272Z,5.38
2023-05-25T12:35:48.604Z,6.00
2023-05-25T12:38:19.181Z,5.53
2023-05-25T12:40:47.332Z,5.90
2023-05-25T12:43:17.497Z,5.35
2023-05-25T12:45:47.005Z,5.57
2023-05-25T12:48:14.986Z,5.15
2023-05-25T12:50:58.339Z,5.43
2023-05-25T12:53:29.044Z,4.95
2023-05-25T12:56:02.655Z,5.22
2023-05-25T12:58:30.697Z,5.55
2023-05-25T13:00:58.755Z,5.05
2023-05-25T13:03:27.038Z,5.13
2023-05-25T13:06:02.305Z,5.85
2023-05-25T13:08:32.031Z,5.10
2023-05-25T13:11:03.706Z,5.20
2023-05-25T13:13:33.090Z,5.13
2023-05-25T13:16:01.491Z,4.82
2023-05-25T13:18:29.516Z,4.97
2023-05-25T13:21:00.555Z,5.35
2023-05-25T13:23:28.837Z,5.20
2023-05-25T13:25:58.133Z,4.57
2023-05-25T13:28:26.360Z,5.10
2023-05-25T13:30:54.577Z,4.78
2023-05-25T13:33:22.503Z,4.72
2023-05-25T13:35:59.089Z,4.82
2023-05-25T13:38:27.537Z,5.05
2023-05-25T13:40:57.636Z,4.75
2023-05-25T13:43:25.730Z,4.10
2023-05-25T13:45:53.894Z,5.00
2023-05-25T13:48:36.315Z,4.32
2023-05-25T13:51:04.403Z,4.55
2023-05-25T13:53:32.684Z,4.72
2023-05-25T13:56:02.099Z,4.20
2023-05-25T13:58:30.007Z,4.25
2023-05-25T14:00:57.930Z,4.57
2023-05-25T14:03:25.936Z,4.28
2023-05-25T14:05:53.911Z,4.63
2023-05-25T14:08:22.235Z,5.03
2023-05-25T14:10:50.256Z,4.47
2023-05-25T14:13:19.393Z,3.92
2023-05-25T14:15:47.445Z,4.95
2023-05-25T14:18:15.756Z,6.13
2023-05-25T14:20:43.925Z,6.32
2023-05-25T14:23:14.407Z,5.75
2023-05-25T14:25:44.397Z,6.43
2023-05-25T14:28:12.367Z,5.80
2023-05-25T14:30:41.548Z,6.05
2023-05-25T14:33:14.097Z,6.38
2023-05-25T14:35:42.718Z,5.90
2023-05-25T14:38:10.977Z,6.05
2023-05-25T14:40:38.782Z,5.80
2023-05-25T14:43:06.534Z,5.85
2023-05-25T14:45:34.324Z,5.45
2023-05-25T14:48:15.467Z,4.82
2023-05-25T14:50:44.974Z,5.60
2023-05-25T14:53:12.762Z,6.15
2023-05-25T14:55:40.972Z,5.70
2023-05-25T14:58:09.161Z,5.47
2023-05-25T15:00:37.337Z,5.85
2023-05-25T15:03:06.510Z,6.07
2023-05-25T15:05:35.491Z,5.60
2023-05-25T15:08:03.298Z,5.65
2023-05-25T15:10:31.064Z,5.85
2023-05-25T15:12:58.803Z,5.32
2023-05-25T15:15:26.588Z,5.47
2023-05-25T15:17:54.412Z,4.90
2023-05-25T15:20:23.664Z,4.90
2023-05-25T15:22:53.739Z,4.60
2023-05-25T15:25:34.429Z,5.00
2023-05-25T15:28:03.103Z,5.20
2023-05-25T15:30:30.963Z,4.90
2023-05-25T15:32:58.738Z,4.75
2023-05-25T15:35:31.365Z,4.68
2023-05-25T15:37:59.311Z,4.95
2023-05-25T15:40:27.570Z,5.10
2023-05-25T15:42:55.413Z,5.22
2023-05-25T15:45:23.189Z,4.93
2023-05-25T15:47:50.988Z,5.00
2023-05-25T15:50:18.960Z,4.95
2023-05-25T15:52:48.141Z,4.85
2023-05-25T15:55:16.081Z,3.70
2023-05-25T15:57:43.862Z,4.78
2023-05-25T16:00:12.988Z,4.05
2023-05-25T16:02:40.851Z,4.22
2023-05-25T16:05:09.693Z,4.20
2023-05-25T16:07:37.494Z,4.43
2023-05-25T16:10:07.692Z,5.15
2023-05-25T16:12:35.507Z,4.78
2023-05-25T16:15:03.372Z,4.65
2023-05-25T16:17:31.135Z,4.53
2023-05-25T16:19:58.957Z,4.53
2023-05-25T16:22:26.796Z,4.93
2023-05-25T16:24:54.545Z,5.10
2023-05-25T16:27:23.712Z,5.10
2023-05-25T16:29:51.515Z,4.30
2023-05-25T16:32:19.290Z,4.70
2023-05-25T16:34:47.073Z,4.50
2023-05-25T16:37:14.878Z,4.63
2023-05-25T16:39:42.632Z,4.28
2023-05-25T16:42:10.421Z,5.10
2023-05-25T16:44:39.564Z,4.72
2023-05-25T16:47:07.385Z,5.05
2023-05-25T16:49:38.938Z,4.32
2023-05-25T16:52:07.034Z,4.78
2023-05-25T16:54:34.813Z,4.28
2023-05-25T16:57:03.044Z,4.40
2023-05-25T16:59:30.974Z,4.35
2023-05-25T17:02:00.784Z,4.32
2023-05-25T17:04:28.654Z,4.32
2023-05-25T17:06:56.500Z,4.20
2023-05-25T17:09:25.555Z,3.95
2023-05-25T17:11:54.000Z,4.10
2023-05-25T17:14:21.970Z,4.45
2023-05-25T17:16:49.775Z,4.05
2023-05-25T17:19:18.973Z,4.40
2023-05-25T17:21:46.751Z,3.90
2023-05-25T17:24:14.584Z,3.88
2023-05-25T17:26:42.375Z,4.40
2023-05-25T17:29:10.159Z,4.00
2023-05-25T17:31:38.021Z,4.18
2023-05-25T17:34:06.920Z,4.10
2023-05-25T17:36:37.127Z,4.40
2023-05-25T17:39:06.603Z,3.97
2023-05-25T17:41:36.758Z,3.67
2023-05-25T17:44:04.698Z,3.30
2023-05-25T17:46:32.872Z,3.60
2023-05-25T17:49:04.467Z,4.10
2023-05-25T17:51:32.458Z,3.47
2023-05-25T17:54:01.913Z,3.50
2023-05-25T17:56:32.907Z,3.40
2023-05-25T17:59:01.056Z,3.50
2023-05-25T18:01:29.229Z,3.55
2023-05-25T18:03:59.026Z,3.47
2023-05-25T18:06:29.278Z,3.45
2023-05-25T18:08:57.487Z,3.30
2023-05-25T18:11:28.644Z,3.40
2023-05-25T18:13:56.626Z,3.47
2023-05-25T18:16:24.682Z,3.40
2023-05-25T18:18:52.796Z,2.97
2023-05-25T18:21:20.762Z,3.13
2023-05-25T18:23:49.106Z,3.70
2023-05-25T18:26:17.072Z,3.00
2023-05-25T18:28:46.484Z,3.83
2023-05-25T18:31:14.493Z,3.58
2023-05-25T18:33:42.537Z,2.85
2023-05-25T18:36:10.505Z,2.72
2023-05-25T18:38:38.462Z,3.58
2023-05-25T18:41:06.432Z,3.15
2023-05-25T18:43:34.331Z,3.53
2023-05-25T18:46:03.873Z,3.10
2023-05-25T18:48:31.954Z,3.22
2023-05-25T18:51:00.037Z,3.17
2023-05-25T18:53:28.006Z,3.25
2023-05-25T18:55:56.068Z,3.33
2023-05-25T18:58:24.104Z,3.40
2023-05-25T19:00:52.033Z,3.42
2023-05-25T19:03:21.536Z,3.30
2023-05-25T19:05:49.743Z,3.60
2023-05-25T19:08:17.750Z,3.03
2023-05-25T19:10:45.817Z,3.10
2023-05-25T19:13:13.899Z,3.08
2023-05-25T19:15:41.853Z,3.05
2023-05-25T19:18:09.779Z,3.00
2023-05-25T19:20:39.172Z,3.63
2023-05-25T19:23:07.161Z,2.70
2023-05-25T19:25:35.059Z,3.00
2023-05-25T19:28:03.394Z,3.00
2023-05-25T19:30:31.675Z,3.20
2023-05-25T19:32:59.588Z,2.50
2023-05-25T19:35:28.175Z,3.17
2023-05-25T19:37:59.978Z,3.13
2023-05-25T19:40:29.955Z,2.75
2023-05-25T19:42:58.042Z,3.30
2023-05-25T19:45:26.469Z,3.28
2023-05-25T19:47:56.100Z,2.92
2023-05-25T19:50:37.233Z,3.03
2023-05-25T19:53:13.231Z,3.20
2023-05-25T19:55:42.827Z,3.17
2023-05-25T19:58:17.216Z,2.85
2023-05-25T20:00:46.509Z,3.28
2023-05-25T20:03:48.588Z,3.10
2023-05-25T20:06:20.881Z,3.03
2023-05-25T20:08:56.585Z,2.95
2023-05-25T20:12:10.055Z,3.50
2023-05-25T20:15:28.491Z,3.10
2023-05-25T20:19:14.176Z,3.30
2023-05-25T20:26:03.004Z,3.53
2023-05-25T20:32:35.227Z,3.28
2023-05-25T20:35:19.444Z,3.20
2023-05-25T20:38:19.312Z,2.78
2023-05-25T20:47:40.537Z,3.05
2023-05-25T20:50:52.454Z,2.95
2023-05-25T20:53:31.434Z,2.65
2023-05-25T20:56:36.973Z,2.88
2023-05-25T20:59:22.399Z,3.00
2023-05-25T21:02:24.437Z,2.92
2023-05-25T21:05:29.238Z,3.00
2023-05-25T21:11:26.148Z,2.70
2023-05-25T21:14:02.111Z,2.85
2023-05-25T21:16:52.671Z,3.55
2023-05-25T21:19:24.515Z,3.20
2023-05-25T21:22:02.948Z,3.13
2023-05-25T21:24:34.417Z,2.95
2023-05-25T21:27:11.733Z,2.80
2023-05-25T21:29:52.463Z,2.80
2023-05-25T21:32:23.733Z,3.10
2023-05-25T21:35:06.076Z,2.97
2023-05-25T21:37:39.951Z,2.90
2023-05-25T21:40:16.380Z,3.22
2023-05-25T21:42:50.345Z,3.20
2023-05-25T21:45:29.000Z,2.65
2023-05-25T21:48:01.903Z,3.20
2023-05-25T21:50:38.416Z,2.92
2023-05-25T21:53:14.761Z,3.15
2023-05-25T21:55:48.284Z,3.53
2023-05-25T21:58:18.829Z,3.08
2023-05-25T22:00:49.739Z,2.92
2023-05-25T22:03:20.784Z,3.00
2023-05-25T22:05:53.159Z,3.22
2023-05-25T22:08:26.648Z,2.85
2023-05-25T22:10:59.496Z,3.00
2023-05-25T22:13:30.328Z,2.60
2023-05-25T22:15:58.886Z,2.85
2023-05-25T22:18:30.219Z,3.08
2023-05-25T22:21:01.176Z,2.80
2023-05-25T22:23:32.212Z,2.92
2023-05-25T22:26:00.326Z,2.63
2023-05-25T22:28:28.471Z,2.95
2023-05-25T22:30:57.532Z,3.05
2023-05-25T22:33:29.782Z,3.00
2023-05-25T22:35:58.989Z,3.28
2023-05-25T22:38:26.919Z,3.05
2023-05-25T22:40:56.253Z,3.58
2023-05-25T22:43:27.085Z,3.00
2023-05-25T22:45:56.779Z,3.65
2023-05-25T22:48:26.834Z,3.05
2023-05-25T22:50:56.734Z,3.10
2023-05-25T22:53:27.657Z,3.03
2023-05-25T22:55:57.007Z,3.17
2023-05-25T22:58:25.062Z,3.35
2023-05-25T23:00:53.050Z,3.15
2023-05-25T23:03:21.152Z,3.20
2023-05-25T23:05:49.334Z,3.60
2023-05-25T23:08:17.390Z,3.47
2023-05-25T23:10:45.976Z,3.47
2023-05-25T23:13:16.667Z,3.22
2023-05-25T23:15:44.812Z,3.53
2023-05-25T23:18:13.650Z,3.50
2023-05-25T23:20:44.970Z,3.97
2023-05-25T23:23:15.125Z,3.15
2023-05-25T23:25:43.334Z,3.40
2023-05-25T23:28:11.589Z,3.10
2023-05-25T23:30:41.215Z,3.28
2023-05-25T23:33:10.443Z,3.17
2023-05-25T23:35:38.559Z,3.25
2023-05-25T23:38:08.955Z,3.83
2023-05-25T23:40:37.049Z,3.10
2023-05-25T23:43:05.750Z,3.95
2023-05-25T23:45:34.121Z,3.00
2023-05-25T23:48:03.542Z,3.20
2023-05-25T23:50:31.625Z,3.58
2023-05-25T23:52:59.628Z,3.67
2023-05-25T23:55:27.856Z,3.75
2023-05-25T23:57:55.941Z,3.60
